Time;durP1;ratioP1;P1;durP2;ratioP2;P2;SDS_P1;SDS_P2;PMS_P1;PMS_P2;Temp;Humidity;BMP_temperature;BMP_pressure;BME280_temperature;BME280_humidity;BME280_pressure;Samples;Min_cycle;Max_cycle;Signal;HPM_P1;HPM_P2
2021/06/27 16:11:31;;;;;;;1.40;1.30;;;;;;;;;;3572710;39;20446;-62
2021/06/27 16:13:56;;;;;;;2.90;1.57;;;;;;;;;;3573523;40;20478;-62
2021/06/27 16:16:23;;;;;;;2.00;1.50;;;;;;;;;;3575018;40;20061;-62
2021/06/27 16:18:50;;;;;;;5.00;3.97;;;;;;;;;;3574907;40;20534;-62
2021/06/27 16:21:16;;;;;;;7.15;2.55;;;;;;;;;;3575432;40;20047;-62
2021/06/27 16:23:41;;;;;;;3.60;3.03;;;;;;;;;;3571554;40;20018;-62
2021/06/27 16:26:07;;;;;;;2.27;1.90;;;;;;;;;;3572092;40;20037;-62
2021/06/27 16:28:32;;;;;;;4.37;3.30;;;;;;;;;;3572402;40;20453;-61
2021/06/27 16:30:57;;;;;;;4.03;3.30;;;;;;;;;;3574105;40;20056;-61
2021/06/27 16:33:22;;;;;;;2.87;1.93;;;;;;;;;;3575315;40;20035;-61
2021/06/27 16:35:47;;;;;;;2.23;1.50;;;;;;;;;;3577637;40;20037;-61
2021/06/27 16:38:13;;;;;;;2.50;1.50;;;;;;;;;;3576631;40;20036;-61
2021/06/27 16:40:38;;;;;;;2.80;2.00;;;;;;;;;;3573392;40;20110;-61
2021/06/27 16:43:03;;;;;;;1.83;1.50;;;;;;;;;;3572536;40;20029;-63
2021/06/27 16:45:28;;;;;;;2.57;1.90;;;;;;;;;;3570893;40;20029;-63
2021/06/27 16:47:54;;;;;;;1.57;1.43;;;;;;;;;;3570867;40;20290;-63
2021/06/27 16:50:19;;;;;;;4.77;2.70;;;;;;;;;;3572476;40;20036;-63
2021/06/27 16:52:44;;;;;;;7.43;2.07;;;;;;;;;;3576100;40;20631;-63
2021/06/27 16:55:09;;;;;;;2.73;2.00;;;;;;;;;;3569752;40;20067;-63
2021/06/27 16:57:35;;;;;;;1.97;1.77;;;;;;;;;;3574447;40;20025;-63
2021/06/27 17:00:00;;;;;;;2.93;2.23;;;;;;;;;;3573541;40;20268;-63
2021/06/27 17:02:25;;;;;;;4.60;2.20;;;;;;;;;;3573305;40;20359;-63
2021/06/27 17:04:50;;;;;;;5.60;1.90;;;;;;;;;;3573443;40;20072;-63
2021/06/27 17:07:15;;;;;;;2.70;2.10;;;;;;;;;;3570332;40;20020;-63
2021/06/27 17:09:41;;;;;;;3.27;2.07;;;;;;;;;;3568710;40;20056;-63
2021/06/27 17:12:06;;;;;;;2.13;1.90;;;;;;;;;;3572077;40;20677;-63
2021/06/27 17:14:33;;;;;;;4.37;2.70;;;;;;;;;;3569449;40;20105;-63
2021/06/27 17:16:58;;;;;;;3.28;2.20;;;;;;;;;;3570021;40;20031;-63
2021/06/27 17:19:23;;;;;;;3.27;2.27;;;;;;;;;;3571865;40;20042;-63
2021/06/27 17:21:48;;;;;;;2.33;1.80;;;;;;;;;;3570551;40;20025;-63
2021/06/27 17:24:13;;;;;;;6.27;2.00;;;;;;;;;;3563769;40;20022;-63
2021/06/27 17:26:39;;;;;;;2.07;1.70;;;;;;;;;;3568510;40;20275;-61
2021/06/27 17:29:04;;;;;;;3.53;2.90;;;;;;;;;;3565009;40;20885;-61
2021/06/27 17:31:29;;;;;;;4.93;3.43;;;;;;;;;;3564414;40;20069;-61
2021/06/27 17:33:54;;;;;;;5.78;2.95;;;;;;;;;;3567152;40;20033;-60
2021/06/27 17:36:20;;;;;;;12.57;4.83;;;;;;;;;;3566815;40;20032;-63
2021/06/27 17:38:45;;;;;;;4.50;2.80;;;;;;;;;;3567815;40;20330;-62
2021/06/27 17:41:10;;;;;;;6.03;3.28;;;;;;;;;;3563964;40;20958;-62
2021/06/27 17:43:36;;;;;;;3.43;2.50;;;;;;;;;;3560299;40;20439;-63
2021/06/27 17:46:01;;;;;;;5.05;2.53;;;;;;;;;;3563102;40;20349;-62
2021/06/27 17:48:27;;;;;;;3.20;2.28;;;;;;;;;;3563046;40;20323;-62
2021/06/27 17:50:52;;;;;;;3.92;2.03;;;;;;;;;;3562620;40;20029;-63
2021/06/27 17:53:17;;;;;;;2.65;2.15;;;;;;;;;;3566354;40;20034;-62
2021/06/27 17:55:42;;;;;;;3.65;1.90;;;;;;;;;;3565387;40;20123;-63
2021/06/27 17:58:08;;;;;;;2.90;2.00;;;;;;;;;;3564609;40;20029;-62
2021/06/27 18:00:33;;;;;;;3.30;2.20;;;;;;;;;;3563845;40;20111;-62
2021/06/27 18:02:58;;;;;;;2.60;1.90;;;;;;;;;;3564144;40;20943;-62
2021/06/27 18:05:23;;;;;;;6.50;2.37;;;;;;;;;;3565004;40;20480;-63
2021/06/27 18:07:49;;;;;;;7.20;2.87;;;;;;;;;;3562427;40;20040;-67
2021/06/27 18:10:14;;;;;;;9.60;1.90;;;;;;;;;;3563789;40;20790;-67
2021/06/27 18:12:40;;;;;;;10.83;3.80;;;;;;;;;;3563237;40;20126;-67
2021/06/27 18:15:05;;;;;;;34.55;7.43;;;;;;;;;;3563805;40;20071;-67
2021/06/27 18:17:30;;;;;;;2.10;1.90;;;;;;;;;;3564964;40;20018;-67
2021/06/27 18:19:55;;;;;;;45.83;8.33;;;;;;;;;;3562876;40;20040;-67
2021/06/27 18:22:20;;;;;;;32.07;6.57;;;;;;;;;;3563867;40;20029;-67
2021/06/27 18:24:48;;;;;;;9.18;4.93;;;;;;;;;;3565749;40;20065;-67
2021/06/27 18:27:13;;;;;;;41.92;8.35;;;;;;;;;;3565032;40;20021;-67
2021/06/27 18:29:39;;;;;;;81.53;14.23;;;;;;;;;;3562605;40;20295;-67
2021/06/27 18:32:04;;;;;;;62.33;10.38;;;;;;;;;;3562690;40;20029;-66
2021/06/27 18:34:30;;;;;;;48.30;10.00;;;;;;;;;;3564186;40;20079;-67
2021/06/27 18:36:55;;;;;;;86.47;10.43;;;;;;;;;;3565245;40;20025;-67
2021/06/27 18:39:20;;;;;;;79.03;10.20;;;;;;;;;;3566542;40;20288;-67
2021/06/27 18:41:45;;;;;;;44.37;8.37;;;;;;;;;;3564185;40;20623;-67
2021/06/27 18:44:16;;;;;;;15.57;6.17;;;;;;;;;;3566659;40;20120;-67
2021/06/27 18:46:41;;;;;;;47.85;7.72;;;;;;;;;;3562093;40;20029;-68
2021/06/27 18:49:06;;;;;;;62.30;8.60;;;;;;;;;;3568317;40;20084;-67
2021/06/27 18:51:31;;;;;;;7.87;4.77;;;;;;;;;;3563783;40;20069;-62
2021/06/27 18:53:57;;;;;;;33.83;6.10;;;;;;;;;;3564700;40;20056;-62
2021/06/27 18:56:22;;;;;;;15.43;4.20;;;;;;;;;;3567635;40;20524;-62
2021/06/27 18:58:47;;;;;;;39.13;9.15;;;;;;;;;;3566830;40;20439;-62
2021/06/27 19:01:13;;;;;;;48.17;8.13;;;;;;;;;;3562335;40;20036;-62
2021/06/27 19:03:38;;;;;;;51.63;8.13;;;;;;;;;;3560507;40;20267;-62
2021/06/27 19:06:03;;;;;;;45.47;7.47;;;;;;;;;;3565732;40;20310;-62
2021/06/27 19:08:29;;;;;;;75.53;9.70;;;;;;;;;;3566375;40;20270;-62
2021/06/27 19:10:54;;;;;;;95.95;11.43;;;;;;;;;;3566899;40;20300;-62
2021/06/27 19:13:19;;;;;;;354.20;284.73;;;;;;;;;;3567280;40;20034;-61
2021/06/27 19:15:44;;;;;;;449.50;399.60;;;;;;;;;;3564714;40;20056;-61
2021/06/27 19:18:10;;;;;;;146.57;17.80;;;;;;;;;;3568994;40;20029;-61
2021/06/27 19:20:35;;;;;;;139.60;15.90;;;;;;;;;;3565288;40;20138;-61
2021/06/27 19:23:00;;;;;;;107.30;12.73;;;;;;;;;;3562964;40;20536;-62
2021/06/27 19:25:26;;;;;;;120.07;14.80;;;;;;;;;;3568018;40;20021;-61
2021/06/27 19:27:51;;;;;;;48.07;7.90;;;;;;;;;;3567967;40;20271;-62
2021/06/27 19:30:16;;;;;;;86.63;10.93;;;;;;;;;;3566097;40;20668;-62
2021/06/27 19:32:41;;;;;;;65.75;8.77;;;;;;;;;;3565463;40;20414;-62
2021/06/27 19:35:07;;;;;;;98.82;10.70;;;;;;;;;;3568632;40;20052;-62
2021/06/27 19:37:32;;;;;;;122.00;51.88;;;;;;;;;;3568507;40;20349;-62
2021/06/27 19:39:58;;;;;;;85.85;10.82;;;;;;;;;;3565090;40;20036;-62
2021/06/27 19:42:23;;;;;;;45.63;7.97;;;;;;;;;;3565491;40;20073;-62
2021/06/27 19:44:48;;;;;;;75.03;10.73;;;;;;;;;;3565858;40;20263;-61
2021/06/27 19:47:13;;;;;;;16.30;5.40;;;;;;;;;;3565117;40;20261;-61
2021/06/27 19:49:39;;;;;;;57.55;10.68;;;;;;;;;;3565859;40;20260;-61
2021/06/27 19:52:04;;;;;;;7.13;4.00;;;;;;;;;;3560403;40;20033;-61
2021/06/27 19:54:29;;;;;;;48.90;8.60;;;;;;;;;;3556782;40;20295;-61
2021/06/27 19:56:54;;;;;;;21.60;5.20;;;;;;;;;;3557868;40;20033;-61
2021/06/27 19:59:22;;;;;;;38.33;8.03;;;;;;;;;;3561343;40;20033;-61
2021/06/27 20:01:50;;;;;;;51.17;7.97;;;;;;;;;;3561705;40;20029;-61
2021/06/27 20:04:16;;;;;;;36.10;7.72;;;;;;;;;;3561668;40;20601;-61
2021/06/27 20:06:41;;;;;;;32.40;9.07;;;;;;;;;;3561043;40;20455;-61
2021/06/27 20:09:06;;;;;;;31.83;7.32;;;;;;;;;;3563221;40;20122;-61
2021/06/27 20:11:31;;;;;;;14.27;5.13;;;;;;;;;;3564476;40;20131;-61
2021/06/27 20:13:56;;;;;;;36.87;7.90;;;;;;;;;;3566535;40;20041;-61
2021/06/27 20:16:22;;;;;;;65.97;9.10;;;;;;;;;;3565134;40;20506;-61
2021/06/27 20:18:47;;;;;;;73.40;10.70;;;;;;;;;;3566668;40;20326;-61
2021/06/27 20:21:12;;;;;;;43.80;7.43;;;;;;;;;;3561706;40;20167;-61
2021/06/27 20:23:37;;;;;;;48.05;8.25;;;;;;;;;;3563104;40;20067;-60
2021/06/27 20:26:03;;;;;;;70.33;9.73;;;;;;;;;;3567045;40;20041;-61
2021/06/27 20:28:28;;;;;;;70.60;9.40;;;;;;;;;;3564128;40;20481;-61
2021/06/27 20:30:53;;;;;;;39.60;8.20;;;;;;;;;;3565245;40;20272;-61
2021/06/27 20:33:19;;;;;;;81.43;10.93;;;;;;;;;;3564951;40;20029;-61
2021/06/27 20:35:44;;;;;;;79.57;10.05;;;;;;;;;;3563898;40;20279;-61
2021/06/27 20:38:09;;;;;;;81.87;10.27;;;;;;;;;;3564924;40;20065;-61
2021/06/27 20:40:34;;;;;;;73.93;9.95;;;;;;;;;;3565579;40;20091;-61
2021/06/27 20:43:01;;;;;;;58.87;9.03;;;;;;;;;;3567252;40;20033;-61
2021/06/27 20:45:26;;;;;;;85.18;10.57;;;;;;;;;;3566653;40;20039;-61
2021/06/27 20:47:52;;;;;;;46.47;8.23;;;;;;;;;;3566087;40;20048;-61
2021/06/27 20:50:17;;;;;;;62.35;8.65;;;;;;;;;;3563808;40;20098;-61
2021/06/27 20:52:42;;;;;;;36.70;7.50;;;;;;;;;;3562800;40;20038;-61
2021/06/27 20:55:07;;;;;;;64.53;8.95;;;;;;;;;;3560527;40;20951;-62
2021/06/27 20:57:33;;;;;;;85.77;10.67;;;;;;;;;;3560696;40;20033;-61
2021/06/27 20:59:58;;;;;;;48.15;8.38;;;;;;;;;;3560229;40;20038;-61
2021/06/27 21:02:23;;;;;;;71.80;10.30;;;;;;;;;;3562398;40;20448;-61
2021/06/27 21:04:49;;;;;;;14.55;5.07;;;;;;;;;;3567181;40;20710;-61
2021/06/27 21:07:14;;;;;;;49.30;8.43;;;;;;;;;;3565475;40;20867;-61
2021/06/27 21:09:39;;;;;;;66.10;11.87;;;;;;;;;;3563425;40;20304;-61
2021/06/27 21:12:04;;;;;;;53.23;8.47;;;;;;;;;;3562474;40;20033;-61
2021/06/27 21:14:29;;;;;;;66.97;9.13;;;;;;;;;;3558952;40;20040;-61
2021/06/27 21:16:55;;;;;;;16.30;5.87;;;;;;;;;;3559219;40;20147;-62
2021/06/27 21:19:20;;;;;;;48.20;8.30;;;;;;;;;;3559222;40;20588;-62
2021/06/27 21:21:45;;;;;;;50.87;8.67;;;;;;;;;;3562396;40;20062;-61
2021/06/27 21:24:10;;;;;;;89.90;10.57;;;;;;;;;;3564783;40;20033;-62
2021/06/27 21:26:37;;;;;;;61.37;8.97;;;;;;;;;;3564791;40;20045;-61
2021/06/27 21:29:02;;;;;;;54.75;9.60;;;;;;;;;;3567368;40;20268;-62
2021/06/27 21:31:27;;;;;;;46.40;8.27;;;;;;;;;;3568211;40;20834;-62
2021/06/27 21:33:53;;;;;;;60.30;10.33;;;;;;;;;;3568498;40;20021;-62
2021/06/27 21:36:18;;;;;;;55.10;9.50;;;;;;;;;;3566197;40;20025;-68
2021/06/27 21:38:43;;;;;;;54.60;9.07;;;;;;;;;;3563317;40;20025;-68
2021/06/27 21:41:08;;;;;;;36.38;7.45;;;;;;;;;;3564616;40;20693;-61
2021/06/27 21:43:34;;;;;;;40.43;8.20;;;;;;;;;;3563338;40;20108;-61
2021/06/27 21:45:59;;;;;;;33.50;7.53;;;;;;;;;;3562410;40;20041;-62
2021/06/27 21:48:24;;;;;;;67.47;11.43;;;;;;;;;;3559449;40;20025;-62
2021/06/27 21:50:50;;;;;;;50.58;8.38;;;;;;;;;;3559073;40;20034;-62
2021/06/27 21:53:15;;;;;;;59.03;9.67;;;;;;;;;;3562025;40;20494;-62
2021/06/27 21:55:40;;;;;;;66.40;10.20;;;;;;;;;;3562985;40;20029;-62
2021/06/27 21:58:06;;;;;;;70.30;10.57;;;;;;;;;;3564375;40;20029;-64
2021/06/27 22:00:31;;;;;;;62.15;9.77;;;;;;;;;;3564562;40;20275;-65
2021/06/27 22:02:56;;;;;;;61.23;10.00;;;;;;;;;;3566703;40;20061;-65
2021/06/27 22:05:22;;;;;;;52.30;8.25;;;;;;;;;;3568805;40;20121;-66
2021/06/27 22:07:47;;;;;;;60.25;9.48;;;;;;;;;;3568371;40;20106;-65
2021/06/27 22:10:12;;;;;;;59.37;10.00;;;;;;;;;;3566977;40;20310;-65
2021/06/27 22:12:37;;;;;;;59.27;9.60;;;;;;;;;;3565749;40;20045;-64
2021/06/27 22:15:02;;;;;;;70.83;10.47;;;;;;;;;;3563644;40;20033;-65
2021/06/27 22:17:28;;;;;;;20.30;6.77;;;;;;;;;;3563151;40;20021;-65
2021/06/27 22:19:53;;;;;;;27.63;7.30;;;;;;;;;;3561623;40;20291;-67
2021/06/27 22:22:18;;;;;;;61.07;9.47;;;;;;;;;;3560070;40;20252;-65
2021/06/27 22:24:43;;;;;;;38.93;7.83;;;;;;;;;;3558882;40;20437;-65
2021/06/27 22:27:09;;;;;;;76.73;10.93;;;;;;;;;;3562206;40;20482;-65
2021/06/27 22:29:34;;;;;;;56.03;9.77;;;;;;;;;;3562777;40;20029;-65
2021/06/27 22:31:59;;;;;;;82.73;11.03;;;;;;;;;;3564601;40;20029;-65
2021/06/27 22:34:24;;;;;;;61.70;9.63;;;;;;;;;;3566642;40;20021;-65
2021/06/27 22:36:49;;;;;;;92.53;12.77;;;;;;;;;;3567959;40;20013;-66
2021/06/27 22:39:15;;;;;;;44.87;9.57;;;;;;;;;;3569423;40;20055;-66
2021/06/27 22:41:40;;;;;;;61.70;9.50;;;;;;;;;;3566761;40;20060;-66
2021/06/27 22:44:06;;;;;;;78.80;10.93;;;;;;;;;;3563945;40;20672;-66
2021/06/27 22:46:31;;;;;;;74.45;11.55;;;;;;;;;;3563359;40;20271;-66
2021/06/27 22:48:56;;;;;;;76.43;11.93;;;;;;;;;;3565325;40;20135;-66
2021/06/27 22:51:21;;;;;;;60.70;10.37;;;;;;;;;;3565737;40;20283;-66
2021/06/27 22:53:46;;;;;;;94.37;12.80;;;;;;;;;;3568004;40;20069;-66
2021/06/27 22:56:16;;;;;;;88.53;16.33;;;;;;;;;;3569097;40;20350;-65
2021/06/27 22:58:41;;;;;;;44.67;8.50;;;;;;;;;;3568206;40;20368;-66
2021/06/27 23:01:06;;;;;;;59.97;10.60;;;;;;;;;;3565055;40;20037;-65
2021/06/27 23:03:32;;;;;;;86.80;12.43;;;;;;;;;;3565193;40;20025;-65
2021/06/27 23:05:57;;;;;;;67.13;9.85;;;;;;;;;;3563987;40;20049;-65
2021/06/27 23:08:22;;;;;;;87.60;11.60;;;;;;;;;;3567769;40;20033;-65
2021/06/27 23:10:48;;;;;;;84.70;12.43;;;;;;;;;;3567754;40;20041;-65
2021/06/27 23:13:13;;;;;;;52.90;9.07;;;;;;;;;;3569623;40;20022;-65
2021/06/27 23:15:38;;;;;;;102.90;12.53;;;;;;;;;;3568513;40;20025;-65
2021/06/27 23:18:03;;;;;;;80.07;10.93;;;;;;;;;;3566548;40;20402;-65
2021/06/27 23:20:31;;;;;;;72.70;10.27;;;;;;;;;;3563703;40;20276;-65
2021/06/27 23:22:56;;;;;;;67.82;10.57;;;;;;;;;;3565787;40;20342;-64
2021/06/27 23:25:24;;;;;;;72.20;10.57;;;;;;;;;;3565591;40;20021;-64
2021/06/27 23:27:49;;;;;;;83.45;11.38;;;;;;;;;;3568579;40;20072;-65
2021/06/27 23:30:14;;;;;;;73.43;10.57;;;;;;;;;;3567776;40;20707;-65
2021/06/27 23:32:40;;;;;;;100.35;13.02;;;;;;;;;;3566367;40;20025;-65
2021/06/27 23:35:05;;;;;;;69.88;10.68;;;;;;;;;;3566397;40;20021;-65
2021/06/27 23:37:30;;;;;;;69.53;11.38;;;;;;;;;;3564900;40;20446;-65
2021/06/27 23:39:56;;;;;;;101.13;13.73;;;;;;;;;;3562490;40;20143;-65
2021/06/27 23:42:21;;;;;;;41.60;9.33;;;;;;;;;;3561786;40;20146;-65
2021/06/27 23:44:46;;;;;;;35.07;9.13;;;;;;;;;;3559973;40;20070;-65
2021/06/27 23:47:11;;;;;;;60.67;10.03;;;;;;;;;;3560116;40;20611;-64
2021/06/27 23:49:36;;;;;;;68.40;13.43;;;;;;;;;;3560926;40;20272;-65
2021/06/27 23:52:02;;;;;;;42.10;8.83;;;;;;;;;;3565807;40;20021;-65
2021/06/27 23:54:27;;;;;;;72.88;19.65;;;;;;;;;;3565023;40;20668;-66
2021/06/27 23:56:52;;;;;;;86.50;12.53;;;;;;;;;;3561946;40;20491;-66
2021/06/27 23:59:17;;;;;;;87.67;12.47;;;;;;;;;;3568364;40;20264;-65
